sensor_id;sensor_type;location;lat;lon;timestamp;pressure;altitude;pressure_sealevel;temperature;humidity
42591;BME280;28218;53.342;-6.216;2023-04-06T00:00:05;101297.44;;;12.20;100.00
42591;BME280;28218;53.342;-6.216;2023-04-06T00:02:35;101294.78;;;12.20;100.00
42591;BME280;28218;53.342;-6.216;2023-04-06T00:05:04;101279.75;;;12.20;100.00
42591;BME280;28218;53.342;-6.216;2023-04-06T00:07:33;101263.72;;;12.22;100.00
42591;BME280;28218;53.342;-6.216;2023-04-06T00:10:06;101277.13;;;12.20;100.00
42591;BME280;28218;53.342;-6.216;2023-04-06T00:12:34;101286.19;;;12.18;100.00
42591;BME280;28218;53.342;-6.216;2023-04-06T00:15:03;101274.28;;;12.14;100.00
42591;BME280;28218;53.342;-6.216;2023-04-06T00:17:32;101275.28;;;12.13;100.00
42591;BME280;28218;53.342;-6.216;2023-04-06T00:20:00;101285.53;;;12.08;100.00
42591;BME280;28218;53.342;-6.216;2023-04-06T00:22:29;101285.88;;;12.05;100.00
42591;BME280;28218;53.342;-6.216;2023-04-06T00:24:57;101280.91;;;12.01;100.00
42591;BME280;28218;53.342;-6.216;2023-04-06T00:27:27;101285.19;;;11.94;100.00
42591;BME280;28218;53.342;-6.216;2023-04-06T00:29:55;101281.72;;;11.86;100.00
42591;BME280;28218;53.342;-6.216;2023-04-06T00:32:24;101287.47;;;11.81;100.00
42591;BME280;28218;53.342;-6.216;2023-04-06T00:34:52;101269.94;;;11.80;100.00
42591;BME280;28218;53.342;-6.216;2023-04-06T00:37:20;101267.16;;;11.82;100.00
42591;BME280;28218;53.342;-6.216;2023-04-06T00:39:48;101269.28;;;11.78;100.00
42591;BME280;28218;53.342;-6.216;2023-04-06T00:42:18;101267.66;;;11.77;100.00
42591;BME280;28218;53.342;-6.216;2023-04-06T00:44:54;101265.00;;;11.77;100.00
42591;BME280;28218;53.342;-6.216;2023-04-06T00:47:24;101266.81;;;11.76;100.00
42591;BME280;28218;53.342;-6.216;2023-04-06T00:49:53;101273.25;;;11.74;100.00
42591;BME280;28218;53.342;-6.216;2023-04-06T00:52:21;101284.75;;;11.65;100.00
42591;BME280;28218;53.342;-6.216;2023-04-06T00:54:50;101290.03;;;11.65;100.00
42591;BME280;28218;53.342;-6.216;2023-04-06T00:57:18;101289.38;;;11.63;100.00
42591;BME280;28218;53.342;-6.216;2023-04-06T00:59:47;101282.44;;;11.62;100.00
42591;BME280;28218;53.342;-6.216;2023-04-06T01:02:16;101287.88;;;11.60;100.00
42591;BME280;28218;53.342;-6.216;2023-04-06T01:04:45;101281.13;;;11.58;100.00
42591;BME280;28218;53.342;-6.216;2023-04-06T01:07:13;101267.44;;;11.54;100.00
42591;BME280;28218;53.342;-6.216;2023-04-06T01:09:42;101286.56;;;11.56;100.00
42591;BME280;28218;53.342;-6.216;2023-04-06T01:12:10;101287.53;;;11.55;100.00
42591;BME280;28218;53.342;-6.216;2023-04-06T01:14:38;101305.03;;;11.56;100.00
42591;BME280;28218;53.342;-6.216;2023-04-06T01:17:06;101299.91;;;11.55;100.00
42591;BME280;28218;53.342;-6.216;2023-04-06T01:19:36;101295.28;;;11.57;100.00
42591;BME280;28218;53.342;-6.216;2023-04-06T01:22:04;101292.81;;;11.55;100.00
42591;BME280;28218;53.342;-6.216;2023-04-06T01:24:34;101293.81;;;11.54;100.00
42591;BME280;28218;53.342;-6.216;2023-04-06T01:27:03;101301.88;;;11.52;100.00
42591;BME280;28218;53.342;-6.216;2023-04-06T01:29:31;101303.03;;;11.50;100.00
42591;BME280;28218;53.342;-6.216;2023-04-06T01:31:59;101293.31;;;11.50;100.00
42591;BME280;28218;53.342;-6.216;2023-04-06T01:34:27;101290.84;;;11.49;100.00
42591;BME280;28218;53.342;-6.216;2023-04-06T01:36:56;101287.84;;;11.52;100.00
42591;BME280;28218;53.342;-6.216;2023-04-06T01:39:24;101286.22;;;11.51;100.00
42591;BME280;28218;53.342;-6.216;2023-04-06T01:41:54;101288.03;;;11.50;100.00
42591;BME280;28218;53.342;-6.216;2023-04-06T01:44:22;101285.06;;;11.54;100.00
42591;BME280;28218;53.342;-6.216;2023-04-06T01:46:50;101284.41;;;11.51;100.00
42591;BME280;28218;53.342;-6.216;2023-04-06T01:49:19;101288.53;;;11.54;100.00
42591;BME280;28218;53.342;-6.216;2023-04-06T01:51:47;101280.75;;;11.52;100.00
42591;BME280;28218;53.342;-6.216;2023-04-06T01:54:15;101276.81;;;11.48;100.00
42591;BME280;28218;53.342;-6.216;2023-04-06T01:56:43;101282.91;;;11.49;100.00
42591;BME280;28218;53.342;-6.216;2023-04-06T01:59:13;101278.44;;;11.41;100.00
42591;BME280;28218;53.342;-6.216;2023-04-06T02:01:42;101269.50;;;11.42;100.00
42591;BME280;28218;53.342;-6.216;2023-04-06T02:04:10;101267.56;;;11.44;100.00
42591;BME280;28218;53.342;-6.216;2023-04-06T02:06:38;101269.03;;;11.47;100.00
42591;BME280;28218;53.342;-6.216;2023-04-06T02:09:07;101272.19;;;11.50;100.00
42591;BME280;28218;53.342;-6.216;2023-04-06T02:11:35;101272.19;;;11.50;100.00
42591;BME280;28218;53.342;-6.216;2023-04-06T02:14:03;101271.38;;;11.50;100.00
42591;BME280;28218;53.342;-6.216;2023-04-06T02:16:33;101269.25;;;11.54;100.00
42591;BME280;28218;53.342;-6.216;2023-04-06T02:19:01;101268.56;;;11.51;100.00
42591;BME280;28218;53.342;-6.216;2023-04-06T02:21:29;101273.66;;;11.45;100.00
42591;BME280;28218;53.342;-6.216;2023-04-06T02:23:58;101260.47;;;11.45;100.00
42591;BME280;28218;53.342;-6.216;2023-04-06T02:26:26;101265.56;;;11.46;100.00
42591;BME280;28218;53.342;-6.216;2023-04-06T02:28:54;101260.31;;;11.46;100.00
42591;BME280;28218;53.342;-6.216;2023-04-06T02:31:22;101260.16;;;11.48;100.00
42591;BME280;28218;53.342;-6.216;2023-04-06T02:33:52;101260.00;;;11.49;100.00
42591;BME280;28218;53.342;-6.216;2023-04-06T02:36:21;101260.00;;;11.49;100.00
42591;BME280;28218;53.342;-6.216;2023-04-06T02:38:49;101260.81;;;11.50;100.00
42591;BME280;28218;53.342;-6.216;2023-04-06T02:41:18;101265.44;;;11.48;100.00
42591;BME280;28218;53.342;-6.216;2023-04-06T02:43:46;101268.56;;;11.43;100.00
42591;BME280;28218;53.342;-6.216;2023-04-06T02:46:15;101273.50;;;11.46;100.00
42591;BME280;28218;53.342;-6.216;2023-04-06T02:48:43;101259.47;;;11.46;100.00
42591;BME280;28218;53.342;-6.216;2023-04-06T02:51:12;101267.22;;;11.39;100.00
42591;BME280;28218;53.342;-6.216;2023-04-06T02:53:41;101269.69;;;11.41;100.00
42591;BME280;28218;53.342;-6.216;2023-04-06T02:56:09;101263.75;;;11.39;100.00
42591;BME280;28218;53.342;-6.216;2023-04-06T02:58:38;101270.81;;;11.38;100.00
42591;BME280;28218;53.342;-6.216;2023-04-06T03:01:06;101272.50;;;11.39;100.00
42591;BME280;28218;53.342;-6.216;2023-04-06T03:03:34;101264.72;;;11.38;100.00
42591;BME280;28218;53.342;-6.216;2023-04-06T03:06:03;101268.53;;;11.35;100.00
42591;BME280;28218;53.342;-6.216;2023-04-06T03:08:32;101259.91;;;11.33;100.00
42591;BME280;28218;53.342;-6.216;2023-04-06T03:11:01;101255.63;;;11.32;100.00
42591;BME280;28218;53.342;-6.216;2023-04-06T03:13:29;101253.00;;;11.32;100.00
42591;BME280;28218;53.342;-6.216;2023-04-06T03:15:57;101254.97;;;11.30;100.00
42591;BME280;28218;53.342;-6.216;2023-04-06T03:18:25;101260.88;;;11.24;100.00
42591;BME280;28218;53.342;-6.216;2023-04-06T03:20:53;101265.16;;;11.17;100.00
42591;BME280;28218;53.342;-6.216;2023-04-06T03:23:22;101268.78;;;11.16;100.00
42591;BME280;28218;53.342;-6.216;2023-04-06T03:25:51;101268.09;;;11.06;100.00
42591;BME280;28218;53.342;-6.216;2023-04-06T03:28:19;101263.63;;;11.06;100.00
42591;BME280;28218;53.342;-6.216;2023-04-06T03:30:49;101270.84;;;11.04;100.00
42591;BME280;28218;53.342;-6.216;2023-04-06T03:33:17;101264.75;;;11.04;100.00
42591;BME280;28218;53.342;-6.216;2023-04-06T03:35:45;101256.50;;;10.98;100.00
42591;BME280;28218;53.342;-6.216;2023-04-06T03:38:14;101258.97;;;11.00;100.00
42591;BME280;28218;53.342;-6.216;2023-04-06T03:40:42;101262.53;;;10.91;100.00
42591;BME280;28218;53.342;-6.216;2023-04-06T03:43:12;101255.78;;;10.88;100.00
42591;BME280;28218;53.342;-6.216;2023-04-06T03:45:40;101255.78;;;10.88;100.00
42591;BME280;28218;53.342;-6.216;2023-04-06T03:48:08;101257.59;;;10.88;100.00
42591;BME280;28218;53.342;-6.216;2023-04-06T03:50:36;101253.78;;;10.82;100.00
42591;BME280;28218;53.342;-6.216;2023-04-06T03:53:04;101268.75;;;10.82;100.00
42591;BME280;28218;53.342;-6.216;2023-04-06T03:55:33;101264.34;;;10.82;100.00
42591;BME280;28218;53.342;-6.216;2023-04-06T03:58:01;101263.00;;;10.86;100.00
42591;BME280;28218;53.342;-6.216;2023-04-06T04:00:31;101272.59;;;10.87;100.00
42591;BME280;28218;53.342;-6.216;2023-04-06T04:02:59;101274.53;;;10.85;100.00
42591;BME280;28218;53.342;-6.216;2023-04-06T04:05:29;101263.66;;;10.80;100.00
42591;BME280;28218;53.342;-6.216;2023-04-06T04:07:57;101268.28;;;10.86;100.00
42591;BME280;28218;53.342;-6.216;2023-04-06T04:10:25;101264.16;;;10.84;100.00
42591;BME280;28218;53.342;-6.216;2023-04-06T04:12:54;101263.13;;;10.77;100.00
42591;BME280;28218;53.342;-6.216;2023-04-06T04:15:22;101262.47;;;10.74;100.00
42591;BME280;28218;53.342;-6.216;2023-04-06T04:17:52;101270.53;;;10.73;100.00
42591;BME280;28218;53.342;-6.216;2023-04-06T04:20:20;101268.38;;;10.68;100.00
42591;BME280;28218;53.342;-6.216;2023-04-06T04:22:48;101270.16;;;10.68;100.00
42591;BME280;28218;53.342;-6.216;2023-04-06T04:25:16;101269.19;;;10.69;100.00
42591;BME280;28218;53.342;-6.216;2023-04-06T04:27:44;101262.94;;;10.70;100.00
42591;BME280;28218;53.342;-6.216;2023-04-06T04:30:13;101262.94;;;10.70;100.00
42591;BME280;28218;53.342;-6.216;2023-04-06T04:32:42;101263.22;;;10.67;100.00
42591;BME280;28218;53.342;-6.216;2023-04-06T04:35:11;101265.56;;;10.70;100.00
42591;BME280;28218;53.342;-6.216;2023-04-06T04:37:40;101272.66;;;10.69;100.00
42591;BME280;28218;53.342;-6.216;2023-04-06T04:40:10;101265.56;;;10.70;100.00
42591;BME280;28218;53.342;-6.216;2023-04-06T04:42:38;101268.66;;;10.65;100.00
42591;BME280;28218;53.342;-6.216;2023-04-06T04:45:07;101272.28;;;10.64;100.00
42591;BME280;28218;53.342;-6.216;2023-04-06T04:47:35;101273.13;;;10.65;100.00
42591;BME280;28218;53.342;-6.216;2023-04-06T04:50:04;101275.75;;;10.65;100.00
42591;BME280;28218;53.342;-6.216;2023-04-06T04:52:34;101278.84;;;10.60;100.00
42591;BME280;28218;53.342;-6.216;2023-04-06T04:55:02;101281.66;;;10.59;100.00
42591;BME280;28218;53.342;-6.216;2023-04-06T04:57:30;101282.16;;;10.62;100.00
42591;BME280;28218;53.342;-6.216;2023-04-06T04:59:58;101283.81;;;10.63;100.00
42591;BME280;28218;53.342;-6.216;2023-04-06T05:02:28;101287.28;;;10.64;100.00
42591;BME280;28218;53.342;-6.216;2023-04-06T05:04:56;101291.88;;;10.62;100.00
42591;BME280;28218;53.342;-6.216;2023-04-06T05:07:25;101288.56;;;10.60;100.00
42591;BME280;28218;53.342;-6.216;2023-04-06T05:09:54;101293.31;;;10.56;100.00
42591;BME280;28218;53.342;-6.216;2023-04-06T05:12:23;101295.78;;;10.58;100.00
42591;BME280;28218;53.342;-6.216;2023-04-06T05:14:51;101301.75;;;10.60;100.00
42591;BME280;28218;53.342;-6.216;2023-04-06T05:17:20;101299.25;;;10.58;100.00
42591;BME280;28218;53.342;-6.216;2023-04-06T05:19:48;101304.69;;;10.57;100.00
42591;BME280;28218;53.342;-6.216;2023-04-06T05:22:16;101303.69;;;10.58;100.00
42591;BME280;28218;53.342;-6.216;2023-04-06T05:24:45;101308.28;;;10.56;100.00
42591;BME280;28218;53.342;-6.216;2023-04-06T05:27:14;101311.09;;;10.54;100.00
42591;BME280;28218;53.342;-6.216;2023-04-06T05:29:42;101308.59;;;10.53;100.00
42591;BME280;28218;53.342;-6.216;2023-04-06T05:32:10;101303.66;;;10.49;100.00
42591;BME280;28218;53.342;-6.216;2023-04-06T05:34:39;101321.41;;;10.47;100.00
42591;BME280;28218;53.342;-6.216;2023-04-06T05:37:07;101309.50;;;10.43;100.00
42591;BME280;28218;53.342;-6.216;2023-04-06T05:39:36;101321.19;;;10.41;100.00
42591;BME280;28218;53.342;-6.216;2023-04-06T05:42:05;101317.03;;;10.38;100.00
42591;BME280;28218;53.342;-6.216;2023-04-06T05:44:36;101324.28;;;10.36;100.00
42591;BME280;28218;53.342;-6.216;2023-04-06T05:47:04;101316.97;;;10.30;100.00
42591;BME280;28218;53.342;-6.216;2023-04-06T05:49:33;101321.78;;;10.35;100.00
42591;BME280;28218;53.342;-6.216;2023-04-06T05:52:01;101324.03;;;10.30;100.00
42591;BME280;28218;53.342;-6.216;2023-04-06T05:54:30;101325.94;;;10.37;100.00
42591;BME280;28218;53.342;-6.216;2023-04-06T05:56:59;101323.97;;;10.39;100.00
42591;BME280;28218;53.342;-6.216;2023-04-06T05:59:27;101327.81;;;10.45;100.00
42591;BME280;28218;53.342;-6.216;2023-04-06T06:01:56;101337.66;;;10.43;100.00
42591;BME280;28218;53.342;-6.216;2023-04-06T06:04:25;101329.47;;;10.46;100.00
42591;BME280;28218;53.342;-6.216;2023-04-06T06:06:53;101344.13;;;10.48;100.00
42591;BME280;28218;53.342;-6.216;2023-04-06T06:09:21;101343.63;;;10.45;100.00
42591;BME280;28218;53.342;-6.216;2023-04-06T06:11:49;101347.38;;;10.42;100.00
42591;BME280;28218;53.342;-6.216;2023-04-06T06:14:18;101344.75;;;10.42;100.00
42591;BME280;28218;53.342;-6.216;2023-04-06T06:16:46;101342.94;;;10.43;100.00
42591;BME280;28218;53.342;-6.216;2023-04-06T06:19:16;101343.25;;;10.40;100.00
42591;BME280;28218;53.342;-6.216;2023-04-06T06:21:44;101346.34;;;10.35;100.00
42591;BME280;28218;53.342;-6.216;2023-04-06T06:24:12;101348.38;;;10.41;100.00
42591;BME280;28218;53.342;-6.216;2023-04-06T06:26:40;101354.28;;;10.43;100.00
42591;BME280;28218;53.342;-6.216;2023-04-06T06:29:09;101366.13;;;10.39;100.00
42591;BME280;28218;53.342;-6.216;2023-04-06T06:31:38;101362.81;;;10.37;100.00
42591;BME280;28218;53.342;-6.216;2023-04-06T06:34:06;101366.13;;;10.39;100.00
42591;BME280;28218;53.342;-6.216;2023-04-06T06:36:35;101357.84;;;10.34;100.00
42591;BME280;28218;53.342;-6.216;2023-04-06T06:39:04;101362.59;;;10.31;100.00
42591;BME280;28218;53.342;-6.216;2023-04-06T06:41:32;101370.34;;;10.32;100.00
42591;BME280;28218;53.342;-6.216;2023-04-06T06:44:00;101366.56;;;10.35;100.00
42591;BME280;28218;53.342;-6.216;2023-04-06T06:46:29;101367.56;;;10.34;100.00
42591;BME280;28218;53.342;-6.216;2023-04-06T06:48:58;101367.00;;;10.30;100.00
42591;BME280;28218;53.342;-6.216;2023-04-06T06:51:26;101370.63;;;10.29;100.00
42591;BME280;28218;53.342;-6.216;2023-04-06T06:53:56;101369.41;;;10.23;100.00
42591;BME280;28218;53.342;-6.216;2023-04-06T06:56:24;101368.75;;;10.21;100.00
42591;BME280;28218;53.342;-6.216;2023-04-06T06:58:53;101373.03;;;10.22;100.00
42591;BME280;28218;53.342;-6.216;2023-04-06T07:01:21;101373.59;;;10.26;100.00
42591;BME280;28218;53.342;-6.216;2023-04-06T07:03:49;101376.22;;;10.26;100.00
42591;BME280;28218;53.342;-6.216;2023-04-06T07:06:18;101377.03;;;10.27;100.00
42591;BME280;28218;53.342;-6.216;2023-04-06T07:08:46;101376.16;;;10.36;100.00
42591;BME280;28218;53.342;-6.216;2023-04-06T07:11:16;101385.63;;;10.46;100.00
42591;BME280;28218;53.342;-6.216;2023-04-06T07:13:44;101370.19;;;10.52;100.00
42591;BME280;28218;53.342;-6.216;2023-04-06T07:16:12;101377.34;;;10.59;100.00
42591;BME280;28218;53.342;-6.216;2023-04-06T07:18:40;101377.38;;;10.67;100.00
42591;BME280;28218;53.342;-6.216;2023-04-06T07:21:09;101377.97;;;10.79;100.00
42591;BME280;28218;53.342;-6.216;2023-04-06T07:23:37;101377.38;;;10.85;100.00
42591;BME280;28218;53.342;-6.216;2023-04-06T07:26:05;101380.38;;;10.90;100.00
42591;BME280;28218;53.342;-6.216;2023-04-06T07:28:35;101379.69;;;10.88;100.00
42591;BME280;28218;53.342;-6.216;2023-04-06T07:31:03;101384.97;;;10.88;100.00
42591;BME280;28218;53.342;-6.216;2023-04-06T07:33:31;101386.91;;;10.86;100.00
42591;BME280;28218;53.342;-6.216;2023-04-06T07:35:59;101387.00;;;10.94;100.00
42591;BME280;28218;53.342;-6.216;2023-04-06T07:38:28;101388.13;;;10.92;100.00
42591;BME280;28218;53.342;-6.216;2023-04-06T07:40:56;101388.28;;;10.90;100.00
42591;BME280;28218;53.342;-6.216;2023-04-06T07:43:24;101389.25;;;10.89;100.00
42591;BME280;28218;53.342;-6.216;2023-04-06T07:45:53;101391.81;;;10.81;100.00
42591;BME280;28218;53.342;-6.216;2023-04-06T07:48:24;101399.72;;;10.81;100.00
42591;BME280;28218;53.342;-6.216;2023-04-06T07:50:52;101399.06;;;10.79;100.00
42591;BME280;28218;53.342;-6.216;2023-04-06T07:53:20;101401.09;;;10.85;100.00
42591;BME280;28218;53.342;-6.216;2023-04-06T07:55:48;101392.06;;;10.88;100.00
42591;BME280;28218;53.342;-6.216;2023-04-06T07:58:16;101404.78;;;10.92;100.00
42591;BME280;28218;53.342;-6.216;2023-04-06T08:00:44;101400.25;;;11.03;100.00
42591;BME280;28218;53.342;-6.216;2023-04-06T08:03:14;101392.63;;;10.99;100.00
42591;BME280;28218;53.342;-6.216;2023-04-06T08:05:43;101394.59;;;10.97;100.00
42591;BME280;28218;53.342;-6.216;2023-04-06T08:08:11;101401.00;;;10.95;100.00
42591;BME280;28218;53.342;-6.216;2023-04-06T08:10:40;101397.75;;;11.01;100.00
42591;BME280;28218;53.342;-6.216;2023-04-06T08:13:08;101406.59;;;11.18;100.00
42591;BME280;28218;53.342;-6.216;2023-04-06T08:15:36;101403.97;;;11.18;100.00
42591;BME280;28218;53.342;-6.216;2023-04-06T08:18:05;101403.31;;;11.24;100.00
42591;BME280;28218;53.342;-6.216;2023-04-06T08:20:35;101417.72;;;11.30;100.00
42591;BME280;28218;53.342;-6.216;2023-04-06T08:23:03;101414.63;;;11.34;100.00
42591;BME280;28218;53.342;-6.216;2023-04-06T08:25:31;101413.78;;;11.34;100.00
42591;BME280;28218;53.342;-6.216;2023-04-06T08:28:00;101416.78;;;11.39;100.00
42591;BME280;28218;53.342;-6.216;2023-04-06T08:30:28;101417.16;;;11.44;100.00
42591;BME280;28218;53.342;-6.216;2023-04-06T08:32:57;101419.47;;;11.47;100.00
42591;BME280;28218;53.342;-6.216;2023-04-06T08:35:26;101421.84;;;11.58;100.00
42591;BME280;28218;53.342;-6.216;2023-04-06T08:37:56;101426.19;;;11.67;100.00
42591;BME280;28218;53.342;-6.216;2023-04-06T08:40:24;101422.72;;;11.75;100.00
42591;BME280;28218;53.342;-6.216;2023-04-06T08:42:55;101421.91;;;11.74;100.00
42591;BME280;28218;53.342;-6.216;2023-04-06T08:45:23;101428.00;;;11.75;100.00
42591;BME280;28218;53.342;-6.216;2023-04-06T08:47:52;101424.06;;;11.79;100.00
42591;BME280;28218;53.342;-6.216;2023-04-06T08:50:21;101430.72;;;11.83;100.00
42591;BME280;28218;53.342;-6.216;2023-04-06T08:52:49;101430.06;;;11.89;100.00
42591;BME280;28218;53.342;-6.216;2023-04-06T08:55:19;101434.88;;;11.94;100.00
42591;BME280;28218;53.342;-6.216;2023-04-06T08:57:47;101425.19;;;12.02;100.00
42591;BME280;28218;53.342;-6.216;2023-04-06T09:00:16;101441.41;;;12.16;100.00
42591;BME280;28218;53.342;-6.216;2023-04-06T09:02:47;101445.91;;;12.23;100.00
42591;BME280;28218;53.342;-6.216;2023-04-06T09:05:17;101435.47;;;12.22;100.00
42591;BME280;28218;53.342;-6.216;2023-04-06T09:07:45;101445.25;;;12.30;100.00
42591;BME280;28218;53.342;-6.216;2023-04-06T09:10:13;101446.56;;;12.34;100.00
42591;BME280;28218;53.342;-6.216;2023-04-06T09:12:45;101452.34;;;12.37;100.00
42591;BME280;28218;53.342;-6.216;2023-04-06T09:15:21;101453.34;;;12.28;100.00
42591;BME280;28218;53.342;-6.216;2023-04-06T09:17:50;101461.09;;;12.30;100.00
42591;BME280;28218;53.342;-6.216;2023-04-06T09:20:22;101468.38;;;12.36;100.00
42591;BME280;28218;53.342;-6.216;2023-04-06T09:22:52;101471.84;;;12.36;100.00
42591;BME280;28218;53.342;-6.216;2023-04-06T09:25:22;101476.47;;;12.34;100.00
42591;BME280;28218;53.342;-6.216;2023-04-06T09:28:00;101493.16;;;12.35;100.00
42591;BME280;28218;53.342;-6.216;2023-04-06T09:30:29;101495.63;;;12.36;100.00
42591;BME280;28218;53.342;-6.216;2023-04-06T09:32:57;101505.09;;;12.47;100.00
42591;BME280;28218;53.342;-6.216;2023-04-06T09:35:26;101511.53;;;12.61;100.00
42591;BME280;28218;53.342;-6.216;2023-04-06T09:37:57;101505.63;;;12.67;100.00
42591;BME280;28218;53.342;-6.216;2023-04-06T09:40:25;101517.69;;;12.69;100.00
42591;BME280;28218;53.342;-6.216;2023-04-06T09:42:55;101517.03;;;12.67;100.00
42591;BME280;28218;53.342;-6.216;2023-04-06T09:45:29;101527.78;;;12.66;100.00
42591;BME280;28218;53.342;-6.216;2023-04-06T09:47:58;101549.25;;;12.71;100.00
42591;BME280;28218;53.342;-6.216;2023-04-06T09:50:27;101543.97;;;12.79;100.00
42591;BME280;28218;53.342;-6.216;2023-04-06T09:52:57;101540.69;;;12.77;100.00
42591;BME280;28218;53.342;-6.216;2023-04-06T09:55:30;101548.28;;;12.72;100.00
42591;BME280;28218;53.342;-6.216;2023-04-06T09:58:04;101551.88;;;12.63;100.00
42591;BME280;28218;53.342;-6.216;2023-04-06T10:00:43;101556.56;;;12.35;100.00
42591;BME280;28218;53.342;-6.216;2023-04-06T10:03:20;101566.59;;;12.23;100.00
42591;BME280;28218;53.342;-6.216;2023-04-06T10:05:52;101560.94;;;12.18;100.00
42591;BME280;28218;53.342;-6.216;2023-04-06T10:08:24;101564.31;;;12.28;100.00
42591;BME280;28218;53.342;-6.216;2023-04-06T10:10:58;101563.09;;;12.65;100.00
42591;BME280;28218;53.342;-6.216;2023-04-06T10:13:27;101563.84;;;12.91;100.00
42591;BME280;28218;53.342;-6.216;2023-04-06T10:15:59;101578.22;;;12.97;100.00
42591;BME280;28218;53.342;-6.216;2023-04-06T10:18:28;101582.19;;;12.93;100.00
42591;BME280;28218;53.342;-6.216;2023-04-06T10:21:01;101578.91;;;13.07;100.00
42591;BME280;28218;53.342;-6.216;2023-04-06T10:23:35;101592.00;;;13.09;100.00
42591;BME280;28218;53.342;-6.216;2023-04-06T10:26:03;101591.13;;;12.92;100.00
42591;BME280;28218;53.342;-6.216;2023-04-06T10:28:33;101600.19;;;12.81;100.00
42591;BME280;28218;53.342;-6.216;2023-04-06T10:31:06;101595.59;;;13.08;100.00
42591;BME280;28218;53.342;-6.216;2023-04-06T10:33:34;101602.63;;;13.41;100.00
42591;BME280;28218;53.342;-6.216;2023-04-06T10:36:12;101594.50;;;13.59;100.00
42591;BME280;28218;53.342;-6.216;2023-04-06T10:38:42;101595.19;;;13.61;100.00
42591;BME280;28218;53.342;-6.216;2023-04-06T10:41:11;101613.38;;;13.48;100.00
42591;BME280;28218;53.342;-6.216;2023-04-06T10:43:41;101619.16;;;13.27;100.00
42591;BME280;28218;53.342;-6.216;2023-04-06T10:46:12;101620.59;;;13.13;100.00
42591;BME280;28218;53.342;-6.216;2023-04-06T10:48:42;101627.84;;;13.03;100.00
42591;BME280;28218;53.342;-6.216;2023-04-06T10:51:11;101631.34;;;13.12;100.00
42591;BME280;28218;53.342;-6.216;2023-04-06T10:53:41;101625.53;;;13.00;100.00
42591;BME280;28218;53.342;-6.216;2023-04-06T10:56:10;101632.03;;;13.22;100.00
42591;BME280;28218;53.342;-6.216;2023-04-06T10:58:44;101623.47;;;13.44;100.00
42591;BME280;28218;53.342;-6.216;2023-04-06T11:01:15;101622.00;;;13.42;100.00
42591;BME280;28218;53.342;-6.216;2023-04-06T11:03:45;101628.91;;;13.35;100.00
42591;BME280;28218;53.342;-6.216;2023-04-06T11:06:20;101642.47;;;13.23;100.00
42591;BME280;28218;53.342;-6.216;2023-04-06T11:08:49;101637.53;;;13.37;100.00
42591;BME280;28218;53.342;-6.216;2023-04-06T11:11:19;101642.69;;;13.71;100.00
42591;BME280;28218;53.342;-6.216;2023-04-06T11:13:49;101642.97;;;13.92;100.00
42591;BME280;28218;53.342;-6.216;2023-04-06T11:16:20;101650.94;;;13.76;100.00
42591;BME280;28218;53.342;-6.216;2023-04-06T11:18:50;101654.59;;;13.50;100.00
42591;BME280;28218;53.342;-6.216;2023-04-06T11:21:19;101657.53;;;13.31;100.00
42591;BME280;28218;53.342;-6.216;2023-04-06T11:23:48;101658.56;;;13.46;100.00
42591;BME280;28218;53.342;-6.216;2023-04-06T11:26:16;101666.50;;;13.63;100.00
42591;BME280;28218;53.342;-6.216;2023-04-06T11:28:44;101660.56;;;13.61;100.00
42591;BME280;28218;53.342;-6.216;2023-04-06T11:31:13;101665.03;;;13.93;100.00
42591;BME280;28218;53.342;-6.216;2023-04-06T11:33:43;101663.16;;;14.26;100.00
42591;BME280;28218;53.342;-6.216;2023-04-06T11:36:13;101660.44;;;14.59;100.00
42591;BME280;28218;53.342;-6.216;2023-04-06T11:38:42;101660.63;;;14.88;100.00
42591;BME280;28218;53.342;-6.216;2023-04-06T11:41:11;101659.91;;;15.02;100.00
42591;BME280;28218;53.342;-6.216;2023-04-06T11:43:46;101658.63;;;15.21;100.00
42591;BME280;28218;53.342;-6.216;2023-04-06T11:46:18;101663.84;;;15.06;100.00
42591;BME280;28218;53.342;-6.216;2023-04-06T11:48:48;101669.94;;;14.84;100.00
42591;BME280;28218;53.342;-6.216;2023-04-06T11:51:22;101675.53;;;14.50;100.00
42591;BME280;28218;53.342;-6.216;2023-04-06T11:53:50;101677.66;;;14.46;100.00
42591;BME280;28218;53.342;-6.216;2023-04-06T11:56:26;101679.66;;;14.61;100.00
42591;BME280;28218;53.342;-6.216;2023-04-06T11:58:56;101671.59;;;14.85;100.00
42591;BME280;28218;53.342;-6.216;2023-04-06T12:01:24;101678.06;;;15.14;100.00
42591;BME280;28218;53.342;-6.216;2023-04-06T12:03:54;101676.28;;;15.37;100.00
42591;BME280;28218;53.342;-6.216;2023-04-06T12:06:23;101686.41;;;15.56;100.00
42591;BME280;28218;53.342;-6.216;2023-04-06T12:08:52;101674.81;;;15.80;100.00
42591;BME280;28218;53.342;-6.216;2023-04-06T12:11:20;101679.16;;;15.96;100.00
42591;BME280;28218;53.342;-6.216;2023-04-06T12:13:48;101678.19;;;16.12;100.00
42591;BME280;28218;53.342;-6.216;2023-04-06T12:16:16;101677.56;;;16.25;100.00
42591;BME280;28218;53.342;-6.216;2023-04-06T12:18:46;101680.09;;;16.03;100.00
42591;BME280;28218;53.342;-6.216;2023-04-06T12:21:15;101682.25;;;15.62;100.00
42591;BME280;28218;53.342;-6.216;2023-04-06T12:23:43;101695.88;;;15.36;100.00
42591;BME280;28218;53.342;-6.216;2023-04-06T12:26:12;101684.19;;;15.45;100.00
42591;BME280;28218;53.342;-6.216;2023-04-06T12:28:40;101683.59;;;15.35;100.00
42591;BME280;28218;53.342;-6.216;2023-04-06T12:31:14;101687.84;;;15.21;100.00
42591;BME280;28218;53.342;-6.216;2023-04-06T12:33:43;101687.94;;;15.28;100.00
42591;BME280;28218;53.342;-6.216;2023-04-06T12:36:12;101683.13;;;15.54;100.00
42591;BME280;28218;53.342;-6.216;2023-04-06T12:38:42;101696.94;;;15.50;100.00